createdAt,value
2023-03-07T00:00:03.192Z,8.80
2023-03-07T00:05:08.183Z,8.63
2023-03-07T00:10:11.626Z,11.43
2023-03-07T00:15:13.846Z,10.73
2023-03-07T00:20:17.609Z,10.73
2023-03-07T00:25:19.717Z,11.53
2023-03-07T00:30:21.895Z,11.90
2023-03-07T00:35:25.610Z,7.83
2023-03-07T00:40:27.494Z,12.60
2023-03-07T00:45:29.562Z,8.27
2023-03-07T00:50:34.393Z,22.77
2023-03-07T00:55:36.114Z,16.43
2023-03-07T01:00:38.055Z,13.10
2023-03-07T01:05:42.078Z,13.90
2023-03-07T01:10:44.351Z,20.00
2023-03-07T01:15:46.762Z,15.97
2023-03-07T01:20:50.418Z,18.90
2023-03-07T01:25:58.534Z,26.33
2023-03-07T01:31:00.852Z,14.07
2023-03-07T01:36:04.868Z,18.53
2023-03-07T01:41:07.076Z,22.80
2023-03-07T01:46:56.806Z,30.27
2023-03-07T01:52:05.539Z,26.93
2023-03-07T01:57:08.350Z,26.13
2023-03-07T02:02:13.584Z,35.07
2023-03-07T02:07:21.204Z,28.63
2023-03-07T02:12:23.748Z,23.87
2023-03-07T02:17:26.225Z,27.30
2023-03-07T02:22:30.081Z,26.77
2023-03-07T02:27:36.523Z,32.37
2023-03-07T02:32:38.724Z,34.67
2023-03-07T02:37:43.865Z,34.30
2023-03-07T02:42:53.449Z,29.00
2023-03-07T02:47:55.604Z,38.30
2023-03-07T02:52:57.685Z,36.53
2023-03-07T02:58:01.214Z,42.60
2023-03-07T03:03:03.527Z,43.30
2023-03-07T03:08:06.556Z,40.10
2023-03-07T03:13:10.307Z,39.73
2023-03-07T03:18:12.297Z,35.17
2023-03-07T03:23:14.440Z,37.07
2023-03-07T03:28:17.888Z,41.00
2023-03-07T03:33:22.992Z,35.63
2023-03-07T03:38:26.721Z,38.70
2023-03-07T03:43:30.224Z,39.00
2023-03-07T03:48:32.306Z,41.93
2023-03-07T03:53:36.241Z,41.53
2023-03-07T03:58:40.916Z,44.73
2023-03-07T04:03:45.864Z,52.10
2023-03-07T04:08:48.277Z,41.10
2023-03-07T04:13:52.152Z,42.47
2023-03-07T04:18:53.891Z,45.23
2023-03-07T04:23:56.029Z,43.20
2023-03-07T04:28:59.607Z,40.90
2023-03-07T04:34:01.440Z,41.33
2023-03-07T04:39:04.564Z,46.13
2023-03-07T04:44:08.097Z,42.70
2023-03-07T04:49:10.263Z,39.90
2023-03-07T04:54:12.441Z,44.67
2023-03-07T04:59:15.900Z,46.67
2023-03-07T05:04:18.026Z,38.87
2023-03-07T05:09:20.089Z,34.40
2023-03-07T05:14:23.445Z,32.67
2023-03-07T05:19:25.590Z,35.30
2023-03-07T05:24:27.799Z,40.47
2023-03-07T05:29:31.587Z,38.87
2023-03-07T05:34:33.729Z,33.90
2023-03-07T05:39:36.239Z,44.73
2023-03-07T05:44:39.381Z,29.60
2023-03-07T05:49:41.478Z,37.97
2023-03-07T05:54:43.588Z,36.43
2023-03-07T05:59:47.071Z,36.20
2023-03-07T06:04:48.987Z,37.47
2023-03-07T06:09:51.284Z,33.23
2023-03-07T06:14:54.517Z,31.37
2023-03-07T06:19:56.908Z,39.20
2023-03-07T06:24:59.061Z,33.87
2023-03-07T06:30:02.823Z,33.23
2023-03-07T06:35:05.783Z,29.83
2023-03-07T06:40:10.906Z,27.80
2023-03-07T06:45:14.611Z,28.13
2023-03-07T06:50:23.736Z,26.37
2023-03-07T06:55:32.579Z,28.07
2023-03-07T07:00:36.166Z,24.17
2023-03-07T07:05:37.979Z,23.40
2023-03-07T07:10:40.064Z,24.67
2023-03-07T07:15:46.718Z,20.93
2023-03-07T07:20:54.623Z,20.97
2023-03-07T07:25:56.288Z,17.80
2023-03-07T07:31:00.370Z,19.07
2023-03-07T07:36:02.354Z,19.13
2023-03-07T07:41:05.010Z,16.73
2023-03-07T07:46:10.638Z,19.53
2023-03-07T07:51:14.945Z,20.60
2023-03-07T07:56:17.303Z,21.07
2023-03-07T08:01:22.482Z,17.63
2023-03-07T08:06:26.202Z,16.63
2023-03-07T08:11:30.448Z,12.80
2023-03-07T08:16:33.973Z,14.67
2023-03-07T08:21:36.145Z,14.17
2023-03-07T08:26:38.324Z,14.53
2023-03-07T08:31:43.735Z,15.80
2023-03-07T08:36:46.293Z,13.93
2023-03-07T08:41:48.590Z,14.43
2023-03-07T08:46:51.828Z,14.53
2023-03-07T08:51:53.545Z,12.50
2023-03-07T08:56:58.786Z,8.87
2023-03-07T09:02:04.619Z,8.87
2023-03-07T09:07:06.693Z,10.10
2023-03-07T09:12:09.440Z,9.00
2023-03-07T09:17:12.912Z,11.00
2023-03-07T09:22:15.022Z,9.37
2023-03-07T09:27:17.137Z,7.63
2023-03-07T09:32:28.700Z,8.97
2023-03-07T09:37:30.843Z,7.63
2023-03-07T09:42:39.304Z,6.67
2023-03-07T09:47:58.874Z,8.90
2023-03-07T09:53:04.082Z,6.67
2023-03-07T09:58:12.660Z,9.17
2023-03-07T10:03:27.610Z,9.97
2023-03-07T10:08:32.284Z,9.60
2023-03-07T10:13:46.825Z,7.03
2023-03-07T10:19:02.303Z,8.27
2023-03-07T10:24:29.794Z,9.90
2023-03-07T10:29:39.462Z,9.67
2023-03-07T10:34:42.640Z,7.93
2023-03-07T10:39:50.572Z,7.50
2023-03-07T10:44:53.026Z,8.60
2023-03-07T10:50:02.345Z,6.77
2023-03-07T10:55:30.512Z,7.03
2023-03-07T11:00:32.779Z,6.57
2023-03-07T11:05:36.272Z,6.87
2023-03-07T11:10:40.354Z,7.10
2023-03-07T11:15:42.821Z,6.10
2023-03-07T11:20:50.119Z,6.67
2023-03-07T11:25:53.636Z,5.73
2023-03-07T11:31:07.229Z,5.20
2023-03-07T11:36:15.637Z,4.47
2023-03-07T11:41:24.372Z,3.77
2023-03-07T11:46:36.404Z,3.37
2023-03-07T11:51:52.435Z,1.00
2023-03-07T11:56:58.479Z,1.47
2023-03-07T12:02:02.991Z,0.87
2023-03-07T12:07:19.879Z,0.60
2023-03-07T12:12:37.876Z,1.17
2023-03-07T12:17:48.132Z,1.07
2023-03-07T12:23:07.898Z,0.97
2023-03-07T12:28:17.994Z,1.10
2023-03-07T12:33:29.316Z,1.77
2023-03-07T12:38:39.409Z,1.33
2023-03-07T12:43:47.177Z,2.97
2023-03-07T12:48:59.193Z,1.87
2023-03-07T12:54:09.620Z,1.17
2023-03-07T12:59:14.843Z,1.57
2023-03-07T13:04:20.411Z,2.53
2023-03-07T13:09:26.447Z,1.10
2023-03-07T13:14:39.455Z,5.50
2023-03-07T13:19:52.781Z,1.40
2023-03-07T13:24:57.870Z,2.17
2023-03-07T13:30:18.576Z,3.33
2023-03-07T13:35:55.331Z,2.63
2023-03-07T13:40:59.681Z,1.50
2023-03-07T13:46:03.248Z,2.17
2023-03-07T13:51:09.351Z,3.17
2023-03-07T13:56:21.605Z,2.97
2023-03-07T14:01:30.229Z,1.60
2023-03-07T14:06:37.713Z,2.00
2023-03-07T14:11:47.468Z,1.07
2023-03-07T14:17:03.936Z,0.77
2023-03-07T14:22:16.478Z,2.93
2023-03-07T14:27:20.174Z,0.80
2023-03-07T14:32:24.468Z,0.50
2023-03-07T14:37:28.486Z,1.83
2023-03-07T14:42:39.543Z,1.13
2023-03-07T14:48:02.973Z,0.97
2023-03-07T14:53:12.356Z,1.33
2023-03-07T14:58:20.001Z,1.73
2023-03-07T15:03:22.001Z,0.70
2023-03-07T15:08:27.205Z,1.97
2023-03-07T15:13:40.228Z,1.50
2023-03-07T15:18:45.909Z,3.37
2023-03-07T15:23:52.278Z,0.83
2023-03-07T15:29:02.240Z,1.00
2023-03-07T15:34:12.637Z,0.67
2023-03-07T15:39:32.572Z,0.80
2023-03-07T15:44:36.780Z,1.50
2023-03-07T15:49:43.144Z,0.50
2023-03-07T15:54:51.598Z,0.80
2023-03-07T15:59:59.604Z,2.00
2023-03-07T16:05:03.404Z,1.57
2023-03-07T16:10:06.330Z,1.53
2023-03-07T16:15:15.846Z,1.30
2023-03-07T16:20:20.800Z,1.47
2023-03-07T16:25:25.788Z,1.10
2023-03-07T16:30:29.787Z,1.17
2023-03-07T16:35:32.163Z,4.50
2023-03-07T16:40:34.799Z,1.07
2023-03-07T16:45:40.056Z,2.77
2023-03-07T16:50:42.166Z,1.73
2023-03-07T16:55:45.632Z,5.80
2023-03-07T17:00:49.656Z,3.30
2023-03-07T17:05:51.772Z,0.97
2023-03-07T17:10:53.900Z,2.17
2023-03-07T17:15:57.533Z,1.87
2023-03-07T17:20:59.712Z,1.70
2023-03-07T17:26:01.919Z,1.23
2023-03-07T17:31:06.022Z,3.10
2023-03-07T17:36:10.294Z,2.93
2023-03-07T17:41:12.760Z,6.33
2023-03-07T17:46:16.283Z,2.30
2023-03-07T17:51:18.245Z,5.07
2023-03-07T17:56:20.496Z,2.53
2023-03-07T18:01:24.139Z,2.17
2023-03-07T18:06:26.849Z,1.70
2023-03-07T18:11:28.999Z,3.47
2023-03-07T18:16:32.620Z,3.63
2023-03-07T18:21:35.122Z,6.07
2023-03-07T18:26:37.068Z,6.43
2023-03-07T18:31:40.648Z,4.67
2023-03-07T18:36:43.052Z,3.37
2023-03-07T18:41:45.011Z,2.53
2023-03-07T18:46:48.266Z,6.03
2023-03-07T18:51:50.185Z,6.00
2023-03-07T18:56:54.858Z,3.70
2023-03-07T19:01:58.020Z,3.67
2023-03-07T19:07:00.087Z,3.03
2023-03-07T19:12:02.801Z,3.17
2023-03-07T19:17:07.043Z,3.13
2023-03-07T19:22:09.998Z,4.17
2023-03-07T19:27:12.500Z,3.93
2023-03-07T19:32:16.109Z,5.23
2023-03-07T19:37:18.249Z,5.10
2023-03-07T19:42:21.375Z,5.37
2023-03-07T19:47:27.602Z,5.47
2023-03-07T19:52:29.819Z,4.47
2023-03-07T19:57:35.290Z,4.27
2023-03-07T20:02:39.008Z,4.50
2023-03-07T20:07:41.302Z,4.03
2023-03-07T20:12:44.187Z,4.33
2023-03-07T20:17:48.237Z,3.23
2023-03-07T20:22:54.218Z,6.50
2023-03-07T20:27:58.164Z,5.23
2023-03-07T20:33:02.310Z,3.47
2023-03-07T20:38:04.951Z,5.23
2023-03-07T20:43:08.021Z,5.23
2023-03-07T20:48:14.335Z,3.80
2023-03-07T20:53:16.740Z,4.53
2023-03-07T20:58:19.914Z,4.43
2023-03-07T21:03:24.848Z,2.73
2023-03-07T21:08:29.044Z,2.47
2023-03-07T21:13:32.644Z,2.00
2023-03-07T21:18:37.219Z,3.10
2023-03-07T21:23:40.936Z,4.77
2023-03-07T21:28:44.253Z,3.00
2023-03-07T21:33:51.647Z,2.67
2023-03-07T21:38:55.307Z,2.93
2023-03-07T21:43:58.305Z,2.33
2023-03-07T21:49:02.104Z,2.37
2023-03-07T21:54:05.157Z,3.23
2023-03-07T21:59:07.635Z,4.60
2023-03-07T22:04:11.297Z,1.23
2023-03-07T22:09:13.713Z,2.70
2023-03-07T22:14:15.472Z,0.87
2023-03-07T22:19:19.029Z,0.97
2023-03-07T22:24:21.080Z,3.20
2023-03-07T22:29:23.330Z,1.67
2023-03-07T22:34:26.806Z,1.13
2023-03-07T22:39:28.861Z,1.13
2023-03-07T22:44:30.959Z,2.77
2023-03-07T22:49:35.154Z,1.87
2023-03-07T22:54:37.359Z,3.33
2023-03-07T22:59:39.695Z,3.33
2023-03-07T23:04:43.407Z,4.47
2023-03-07T23:09:45.592Z,2.60
2023-03-07T23:14:47.713Z,3.27
2023-03-07T23:19:52.699Z,5.07
2023-03-07T23:24:54.756Z,2.60
2023-03-07T23:29:57.412Z,1.00
2023-03-07T23:35:01.028Z,1.50
2023-03-07T23:40:03.335Z,3.83
2023-03-07T23:45:06.373Z,2.07
2023-03-07T23:50:11.412Z,4.63
2023-03-07T23:55:13.735Z,3.33
